createdAt,value
2022-10-08T00:00:53.760Z,3.85
2022-10-08T00:03:25.470Z,4.03
2022-10-08T00:06:12.702Z,3.70
2022-10-08T00:08:41.739Z,3.65
2022-10-08T00:11:12.142Z,3.70
2022-10-08T00:13:44.730Z,3.40
2022-10-08T00:16:14.251Z,3.95
2022-10-08T00:18:42.423Z,4.03
2022-10-08T00:21:14.362Z,3.85
2022-10-08T00:23:41.547Z,4.78
2022-10-08T00:26:08.428Z,4.57
2022-10-08T00:28:40.754Z,3.58
2022-10-08T00:31:14.007Z,4.38
2022-10-08T00:33:40.324Z,3.30
2022-10-08T00:36:09.858Z,3.65
2022-10-08T00:38:36.953Z,3.33
2022-10-08T00:41:05.717Z,3.90
2022-10-08T00:43:45.241Z,3.53
2022-10-08T00:46:31.546Z,3.42
2022-10-08T00:49:20.061Z,3.95
2022-10-08T00:51:55.590Z,3.90
2022-10-08T00:54:23.152Z,4.13
2022-10-08T00:56:52.685Z,3.75
2022-10-08T00:59:20.257Z,4.93
2022-10-08T01:01:47.056Z,3.15
2022-10-08T01:04:14.855Z,3.80
2022-10-08T01:07:04.276Z,3.63
2022-10-08T01:09:38.139Z,3.20
2022-10-08T01:12:19.180Z,4.75
2022-10-08T01:14:56.003Z,3.42
2022-10-08T01:17:31.425Z,3.63
2022-10-08T01:20:38.945Z,3.80
2022-10-08T01:23:29.305Z,3.50
2022-10-08T01:26:20.694Z,3.50
2022-10-08T01:28:59.613Z,3.20
2022-10-08T01:31:42.542Z,2.92
2022-10-08T01:34:17.505Z,3.15
2022-10-08T01:36:47.336Z,3.63
2022-10-08T01:39:18.644Z,3.70
2022-10-08T01:41:51.357Z,3.83
2022-10-08T01:44:30.234Z,4.90
2022-10-08T01:46:59.285Z,3.35
2022-10-08T01:49:34.126Z,4.53
2022-10-08T01:52:08.452Z,3.45
2022-10-08T01:54:37.260Z,4.32
2022-10-08T02:00:54.432Z,3.20
2022-10-08T02:03:21.001Z,4.00
2022-10-08T02:05:51.955Z,3.58
2022-10-08T02:08:18.818Z,3.55
2022-10-08T02:10:46.580Z,3.10
2022-10-08T02:13:13.119Z,3.55
2022-10-08T02:15:59.729Z,3.08
2022-10-08T02:18:43.299Z,3.13
2022-10-08T02:21:19.241Z,2.90
2022-10-08T02:23:56.600Z,3.22
2022-10-08T02:26:31.668Z,3.20
2022-10-08T02:29:06.191Z,2.83
2022-10-08T02:31:49.790Z,3.20
2022-10-08T02:34:32.699Z,2.42
2022-10-08T02:37:09.336Z,3.10
2022-10-08T02:39:39.420Z,3.38
2022-10-08T02:42:13.946Z,2.88
2022-10-08T02:44:45.167Z,2.70
2022-10-08T02:47:16.370Z,2.67
2022-10-08T02:49:50.026Z,2.70
2022-10-08T02:52:19.008Z,2.50
2022-10-08T02:54:48.259Z,2.40
2022-10-08T02:57:21.393Z,2.72
2022-10-08T02:59:48.382Z,2.65
2022-10-08T03:02:26.220Z,2.90
2022-10-08T03:05:01.619Z,2.30
2022-10-08T03:07:31.159Z,2.50
2022-10-08T03:09:59.297Z,2.85
2022-10-08T03:12:26.357Z,2.92
2022-10-08T03:14:53.879Z,3.08
2022-10-08T03:17:27.498Z,2.40
2022-10-08T03:19:54.647Z,2.33
2022-10-08T03:22:21.038Z,2.28
2022-10-08T03:24:47.445Z,2.97
2022-10-08T03:27:13.880Z,2.83
2022-10-08T03:29:41.309Z,2.22
2022-10-08T03:32:08.462Z,2.85
2022-10-08T03:34:34.977Z,2.15
2022-10-08T03:37:01.595Z,2.50
2022-10-08T03:39:27.978Z,2.25
2022-10-08T03:41:54.348Z,3.17
2022-10-08T03:44:20.706Z,2.78
2022-10-08T03:46:47.735Z,3.33
2022-10-08T03:49:14.108Z,3.17
2022-10-08T03:51:40.542Z,2.80
2022-10-08T03:54:08.286Z,3.13
2022-10-08T03:56:34.625Z,3.20
2022-10-08T03:59:01.159Z,3.85
2022-10-08T04:01:30.813Z,2.45
2022-10-08T04:03:57.320Z,3.03
2022-10-08T04:06:23.920Z,2.70
2022-10-08T04:08:50.301Z,2.67
2022-10-08T04:11:18.105Z,2.92
2022-10-08T04:13:44.765Z,3.75
2022-10-08T04:16:14.622Z,3.03
2022-10-08T04:18:41.895Z,2.55
2022-10-08T04:21:11.588Z,2.88
2022-10-08T04:23:39.591Z,3.00
2022-10-08T04:26:06.283Z,3.50
2022-10-08T04:28:37.567Z,3.58
2022-10-08T04:31:11.495Z,3.80
2022-10-08T04:33:38.110Z,3.47
2022-10-08T04:36:12.574Z,4.50
2022-10-08T04:38:38.924Z,3.42
2022-10-08T04:41:08.194Z,3.58
2022-10-08T04:43:37.016Z,4.28
2022-10-08T04:46:04.275Z,3.97
2022-10-08T04:48:31.044Z,3.90
2022-10-08T04:51:04.070Z,4.07
2022-10-08T04:53:32.924Z,3.63
2022-10-08T04:56:12.510Z,3.50
2022-10-08T04:58:40.090Z,3.85
2022-10-08T05:01:08.596Z,4.35
2022-10-08T05:03:39.640Z,4.70
2022-10-08T05:06:07.040Z,4.50
2022-10-08T05:08:33.725Z,4.50
2022-10-08T05:11:00.399Z,4.55
2022-10-08T05:13:27.039Z,4.28
2022-10-08T05:15:53.577Z,5.43
2022-10-08T05:18:19.940Z,5.35
2022-10-08T05:20:46.276Z,4.68
2022-10-08T05:23:13.448Z,5.72
2022-10-08T05:25:40.328Z,5.35
2022-10-08T05:28:06.909Z,5.80
2022-10-08T05:30:33.532Z,6.13
2022-10-08T05:33:00.153Z,5.38
2022-10-08T05:35:26.703Z,6.10
2022-10-08T05:37:53.037Z,6.40
2022-10-08T05:40:20.645Z,6.18
2022-10-08T05:42:47.304Z,5.90
2022-10-08T05:45:14.458Z,6.22
2022-10-08T05:47:41.488Z,6.40
2022-10-08T05:50:08.528Z,6.30
2022-10-08T05:52:34.850Z,6.90
2022-10-08T05:55:01.222Z,5.85
2022-10-08T05:57:27.957Z,6.45
2022-10-08T05:59:54.271Z,6.72
2022-10-08T06:02:21.223Z,6.90
2022-10-08T06:04:49.443Z,6.13
2022-10-08T06:07:16.468Z,6.72
2022-10-08T06:09:46.965Z,6.40
2022-10-08T06:12:14.196Z,6.70
2022-10-08T06:14:41.115Z,6.68
2022-10-08T06:17:07.570Z,6.78
2022-10-08T06:19:37.241Z,6.50
2022-10-08T06:22:06.864Z,7.15
2022-10-08T06:24:33.215Z,6.93
2022-10-08T06:26:59.622Z,6.50
2022-10-08T06:29:26.106Z,6.93
2022-10-08T06:31:52.716Z,6.20
2022-10-08T06:34:22.043Z,6.55
2022-10-08T06:36:48.439Z,5.60
2022-10-08T06:39:17.671Z,5.90
2022-10-08T06:41:44.484Z,6.13
2022-10-08T06:44:13.482Z,6.40
2022-10-08T06:46:40.155Z,5.65
2022-10-08T06:49:06.876Z,6.35
2022-10-08T06:51:33.603Z,6.82
2022-10-08T06:54:07.032Z,7.07
2022-10-08T06:56:36.328Z,6.63
2022-10-08T06:59:04.212Z,6.38
2022-10-08T07:01:33.925Z,6.90
2022-10-08T07:04:01.509Z,7.10
2022-10-08T07:06:28.707Z,6.28
2022-10-08T07:08:59.102Z,6.45
2022-10-08T07:11:26.586Z,6.57
2022-10-08T07:13:55.462Z,6.82
2022-10-08T07:16:24.217Z,6.03
2022-10-08T07:18:52.583Z,6.50
2022-10-08T07:21:21.393Z,6.82
2022-10-08T07:23:48.459Z,6.13
2022-10-08T07:26:23.003Z,6.25
2022-10-08T07:28:55.225Z,6.28
2022-10-08T07:31:24.662Z,6.53
2022-10-08T07:33:51.911Z,5.75
2022-10-08T07:36:20.492Z,6.25
2022-10-08T07:41:14.920Z,6.40
2022-10-08T07:43:41.547Z,7.05
2022-10-08T07:46:10.226Z,6.03
2022-10-08T07:48:38.584Z,6.35
2022-10-08T07:53:44.500Z,6.25
2022-10-08T07:56:12.950Z,7.20
2022-10-08T07:58:39.512Z,6.45
2022-10-08T08:01:08.791Z,6.78
2022-10-08T08:03:36.143Z,6.70
2022-10-08T08:06:09.552Z,6.30
2022-10-08T08:08:55.642Z,6.85
2022-10-08T08:11:23.961Z,7.50
2022-10-08T08:13:53.861Z,7.35
2022-10-08T08:16:26.807Z,7.85
2022-10-08T08:18:59.058Z,8.27
2022-10-08T08:21:28.296Z,9.20
2022-10-08T08:23:56.883Z,9.25
2022-10-08T08:29:02.129Z,9.05
2022-10-08T08:31:36.276Z,10.07
2022-10-08T08:34:07.183Z,11.65
2022-10-08T08:36:40.809Z,12.07
2022-10-08T08:39:13.809Z,10.75
2022-10-08T08:41:55.666Z,12.60
2022-10-08T08:44:24.564Z,12.48
2022-10-08T08:47:17.253Z,13.25
2022-10-08T08:49:48.189Z,12.88
2022-10-08T08:52:17.905Z,13.73
2022-10-08T08:54:49.551Z,13.40
2022-10-08T08:57:34.184Z,12.85
2022-10-08T09:00:05.669Z,13.20
2022-10-08T09:02:38.291Z,13.00
2022-10-08T09:05:13.273Z,13.40
2022-10-08T09:08:05.964Z,13.23
2022-10-08T09:10:42.780Z,12.93
2022-10-08T09:13:32.033Z,12.10
2022-10-08T09:15:58.952Z,12.30
2022-10-08T09:18:25.491Z,11.18
2022-10-08T09:20:52.296Z,11.38
2022-10-08T09:23:22.773Z,11.68
2022-10-08T09:26:08.175Z,12.52
2022-10-08T09:28:55.679Z,11.68
2022-10-08T09:31:40.241Z,13.37
2022-10-08T09:34:15.875Z,12.35
2022-10-08T09:36:54.605Z,11.55
2022-10-08T09:39:26.453Z,10.65
2022-10-08T09:42:07.956Z,9.65
2022-10-08T09:44:52.313Z,8.45
2022-10-08T09:47:21.300Z,8.10
2022-10-08T09:50:07.488Z,7.50
2022-10-08T09:52:36.615Z,7.25
2022-10-08T09:55:09.541Z,8.18
2022-10-08T09:57:44.816Z,8.40
2022-10-08T10:00:37.145Z,7.00
2022-10-08T10:03:15.265Z,6.90
2022-10-08T10:05:41.811Z,6.70
2022-10-08T10:08:47.762Z,6.18
2022-10-08T10:11:41.929Z,8.60
2022-10-08T10:14:28.749Z,6.28
2022-10-08T10:17:06.168Z,5.75
2022-10-08T10:19:42.352Z,5.47
2022-10-08T10:22:19.429Z,5.47
2022-10-08T10:24:59.140Z,5.22
2022-10-08T10:27:42.982Z,5.50
2022-10-08T10:30:20.256Z,5.20
2022-10-08T10:32:53.097Z,5.40
2022-10-08T10:35:19.518Z,5.15
2022-10-08T10:37:54.804Z,5.00
2022-10-08T10:40:50.315Z,5.65
2022-10-08T10:43:50.608Z,5.43
2022-10-08T10:46:33.823Z,4.80
2022-10-08T10:49:00.829Z,4.28
2022-10-08T10:51:49.840Z,5.03
2022-10-08T10:54:42.999Z,4.10
2022-10-08T10:57:34.009Z,3.78
2022-10-08T11:00:07.282Z,3.72
2022-10-08T11:02:42.864Z,3.33
2022-10-08T11:05:33.263Z,3.80
2022-10-08T11:08:18.383Z,3.70
2022-10-08T11:11:09.116Z,3.72
2022-10-08T11:14:04.151Z,4.70
2022-10-08T11:16:48.667Z,3.50
2022-10-08T11:19:26.033Z,3.42
2022-10-08T11:22:25.199Z,3.90
2022-10-08T11:25:06.180Z,3.55
2022-10-08T11:27:50.845Z,3.15
2022-10-08T11:30:36.752Z,2.95
2022-10-08T11:33:05.026Z,3.13
2022-10-08T11:35:41.709Z,2.60
2022-10-08T11:38:17.019Z,2.67
2022-10-08T11:40:54.812Z,2.22
2022-10-08T11:43:37.456Z,2.47
2022-10-08T11:46:32.812Z,2.30
2022-10-08T11:49:24.037Z,2.22
2022-10-08T11:51:52.203Z,2.55
2022-10-08T11:54:29.017Z,2.15
2022-10-08T11:58:07.363Z,2.47
2022-10-08T12:00:40.734Z,1.83
2022-10-08T12:03:32.086Z,2.63
2022-10-08T12:06:13.474Z,2.33
2022-10-08T12:08:59.242Z,2.15
2022-10-08T12:11:31.753Z,1.95
2022-10-08T12:14:13.475Z,2.33
2022-10-08T12:16:49.080Z,1.88
2022-10-08T12:19:35.184Z,1.80
2022-10-08T12:22:25.451Z,2.33
2022-10-08T12:25:01.092Z,1.90
2022-10-08T12:27:31.082Z,2.28
2022-10-08T12:30:02.029Z,1.70
2022-10-08T12:32:43.959Z,1.60
2022-10-08T12:35:31.355Z,1.67
2022-10-08T12:38:08.954Z,1.90
2022-10-08T12:40:48.675Z,1.40
2022-10-08T12:43:47.873Z,1.75
2022-10-08T12:46:33.440Z,1.50
2022-10-08T12:49:21.739Z,2.15
2022-10-08T12:52:04.316Z,2.40
2022-10-08T12:54:32.291Z,1.33
2022-10-08T12:57:00.972Z,1.02
2022-10-08T12:59:32.158Z,1.10
2022-10-08T13:01:59.159Z,0.98
2022-10-08T13:04:29.859Z,1.30
2022-10-08T13:06:56.649Z,1.30
2022-10-08T13:09:26.624Z,1.13
2022-10-08T13:12:02.915Z,0.82
2022-10-08T13:14:32.109Z,0.90
2022-10-08T13:16:59.002Z,1.40
2022-10-08T13:19:35.196Z,1.30
2022-10-08T13:22:24.353Z,1.38
2022-10-08T13:24:51.072Z,1.67
2022-10-08T13:27:27.569Z,1.00
2022-10-08T13:29:55.552Z,1.30
2022-10-08T13:32:35.224Z,1.27
2022-10-08T13:35:04.655Z,1.55
2022-10-08T13:37:38.116Z,1.40
2022-10-08T13:40:13.520Z,1.40
2022-10-08T13:42:43.282Z,1.13
2022-10-08T13:45:24.586Z,1.00
2022-10-08T13:47:51.847Z,1.17
2022-10-08T13:50:19.420Z,1.08
2022-10-08T13:52:55.564Z,1.40
2022-10-08T13:55:29.277Z,2.13
2022-10-08T13:57:57.647Z,1.40
2022-10-08T14:00:24.056Z,2.17
2022-10-08T14:02:51.607Z,1.58
2022-10-08T14:05:19.070Z,1.63
2022-10-08T14:07:47.833Z,2.10
2022-10-08T14:10:14.882Z,1.13
2022-10-08T14:12:41.675Z,1.30
2022-10-08T14:15:11.636Z,1.30
2022-10-08T14:17:38.541Z,1.45
2022-10-08T14:20:05.451Z,1.05
2022-10-08T14:22:38.582Z,1.15
2022-10-08T14:25:15.633Z,0.90
2022-10-08T14:27:42.078Z,0.82
2022-10-08T14:30:10.608Z,1.17
2022-10-08T14:35:04.714Z,1.27
2022-10-08T14:37:31.159Z,1.55
2022-10-08T14:39:57.568Z,1.27
2022-10-08T14:42:24.069Z,1.13
2022-10-08T14:44:51.614Z,0.93
2022-10-08T14:47:17.959Z,1.83
2022-10-08T14:49:44.483Z,1.23
2022-10-08T14:52:11.192Z,1.90
2022-10-08T14:54:37.686Z,1.73
2022-10-08T14:57:04.229Z,1.38
2022-10-08T14:59:30.560Z,1.35
2022-10-08T15:01:56.985Z,1.42
2022-10-08T15:04:23.320Z,1.45
2022-10-08T15:06:49.665Z,1.20
2022-10-08T15:09:16.727Z,1.30
2022-10-08T15:11:43.121Z,0.90
2022-10-08T15:14:09.664Z,1.23
2022-10-08T15:16:36.142Z,0.95
2022-10-08T15:19:02.480Z,1.15
2022-10-08T15:21:28.789Z,0.80
2022-10-08T15:23:56.774Z,1.30
2022-10-08T15:26:23.084Z,4.72
2022-10-08T15:28:52.989Z,12.45
2022-10-08T15:31:22.624Z,7.25
2022-10-08T15:33:51.007Z,2.67
2022-10-08T15:36:28.325Z,1.70
2022-10-08T15:39:03.441Z,1.60
2022-10-08T15:41:33.687Z,1.60
2022-10-08T15:44:31.247Z,1.45
2022-10-08T15:47:04.332Z,1.38
2022-10-08T15:49:31.754Z,1.30
2022-10-08T15:51:58.655Z,1.80
2022-10-08T15:54:25.059Z,1.33
2022-10-08T15:56:51.347Z,2.10
2022-10-08T15:59:17.815Z,1.90
2022-10-08T16:01:44.160Z,1.58
2022-10-08T16:04:14.134Z,1.13
2022-10-08T16:06:45.521Z,1.25
2022-10-08T16:09:16.659Z,2.45
2022-10-08T16:11:44.178Z,1.10
2022-10-08T16:14:19.288Z,1.35
2022-10-08T16:16:46.309Z,1.45
2022-10-08T16:19:16.437Z,2.28
2022-10-08T16:21:44.287Z,1.30
2022-10-08T16:24:11.023Z,1.48
2022-10-08T16:26:39.783Z,1.38
2022-10-08T16:29:09.071Z,1.45
2022-10-08T16:31:37.564Z,1.63
2022-10-08T16:34:11.384Z,1.27
2022-10-08T16:36:38.014Z,1.40
2022-10-08T16:39:06.282Z,1.45
2022-10-08T16:41:34.456Z,1.30
2022-10-08T16:44:12.947Z,1.77
2022-10-08T16:46:41.994Z,1.50
2022-10-08T16:49:18.336Z,1.55
2022-10-08T16:51:47.808Z,1.73
2022-10-08T16:54:15.907Z,1.77
2022-10-08T16:56:44.382Z,2.10
2022-10-08T16:59:14.268Z,1.80
2022-10-08T17:01:42.852Z,1.90
2022-10-08T17:06:36.186Z,2.55
2022-10-08T17:09:04.112Z,2.33
2022-10-08T17:11:30.867Z,2.42
2022-10-08T17:13:58.253Z,2.55
2022-10-08T17:16:26.574Z,2.72
2022-10-08T17:18:55.162Z,3.05
2022-10-08T17:21:22.895Z,4.15
2022-10-08T17:23:50.062Z,4.10
2022-10-08T17:26:20.039Z,5.28
2022-10-08T17:28:48.228Z,4.47
2022-10-08T17:31:18.026Z,4.15
2022-10-08T17:33:44.969Z,4.57
2022-10-08T17:36:17.223Z,4.25
2022-10-08T17:38:45.685Z,4.70
2022-10-08T17:41:24.555Z,4.07
2022-10-08T17:43:51.595Z,3.47
2022-10-08T17:46:21.300Z,3.92
2022-10-08T17:48:48.292Z,3.72
2022-10-08T17:51:17.693Z,3.85
2022-10-08T17:53:45.651Z,3.55
2022-10-08T17:56:13.549Z,3.83
2022-10-08T17:58:40.250Z,5.07
2022-10-08T18:01:12.630Z,5.60
2022-10-08T18:03:40.865Z,6.72
2022-10-08T18:06:09.223Z,6.43
2022-10-08T18:08:36.035Z,5.47
2022-10-08T18:11:08.536Z,5.50
2022-10-08T18:13:35.603Z,4.43
2022-10-08T18:16:04.762Z,4.80
2022-10-08T18:18:31.501Z,4.60
2022-10-08T18:20:59.164Z,8.05
2022-10-08T18:23:27.249Z,6.77
2022-10-08T18:25:54.153Z,5.93
2022-10-08T18:28:21.825Z,5.32
2022-10-08T18:30:48.558Z,4.67
2022-10-08T18:33:15.311Z,4.35
2022-10-08T18:35:43.406Z,3.92
2022-10-08T18:38:09.701Z,3.50
2022-10-08T18:40:36.064Z,3.75
2022-10-08T18:43:02.356Z,4.22
2022-10-08T18:45:28.748Z,4.78
2022-10-08T18:47:55.242Z,4.82
2022-10-08T18:50:21.549Z,4.80
2022-10-08T18:52:48.102Z,5.07
2022-10-08T18:55:14.619Z,4.18
2022-10-08T18:57:41.101Z,4.57
2022-10-08T19:00:08.280Z,4.50
2022-10-08T19:02:34.691Z,4.57
2022-10-08T19:05:01.080Z,5.43
2022-10-08T19:07:27.415Z,4.88
2022-10-08T19:09:53.764Z,5.22
2022-10-08T19:12:20.324Z,4.30
2022-10-08T19:14:47.219Z,4.68
2022-10-08T19:17:13.577Z,4.90
2022-10-08T19:19:39.946Z,5.25
2022-10-08T19:22:06.318Z,5.05
2022-10-08T19:24:32.615Z,5.07
2022-10-08T19:26:59.162Z,6.32
2022-10-08T19:29:29.501Z,7.10
2022-10-08T19:31:56.477Z,8.68
2022-10-08T19:34:25.493Z,9.10
2022-10-08T19:36:52.636Z,11.95
2022-10-08T19:39:22.248Z,12.82
2022-10-08T19:41:49.601Z,14.25
2022-10-08T19:44:16.922Z,12.60
2022-10-08T19:46:44.135Z,11.45
2022-10-08T19:49:10.902Z,9.50
2022-10-08T19:51:37.864Z,8.85
2022-10-08T19:54:04.764Z,8.50
2022-10-08T19:56:31.655Z,11.30
2022-10-08T19:58:58.276Z,10.10
2022-10-08T20:01:35.998Z,9.57
2022-10-08T20:04:04.893Z,11.68
2022-10-08T20:06:33.459Z,12.63
2022-10-08T20:11:29.141Z,10.40
2022-10-08T20:13:56.321Z,11.20
2022-10-08T20:16:28.517Z,10.52
2022-10-08T20:19:01.547Z,11.45
2022-10-08T20:21:30.132Z,10.98
2022-10-08T20:26:31.646Z,9.82
2022-10-08T20:29:05.079Z,12.68
2022-10-08T20:31:34.202Z,11.90
2022-10-08T20:34:03.693Z,12.65
2022-10-08T20:36:31.141Z,13.77
2022-10-08T20:38:58.136Z,12.05
2022-10-08T20:41:30.402Z,13.20
2022-10-08T20:44:00.413Z,11.25
2022-10-08T20:46:27.163Z,11.73
2022-10-08T20:48:53.598Z,11.95
2022-10-08T20:51:23.335Z,11.20
2022-10-08T20:54:11.612Z,10.68
2022-10-08T20:56:40.378Z,10.13
2022-10-08T20:59:13.810Z,10.25
2022-10-08T21:01:40.222Z,11.40
2022-10-08T21:04:07.666Z,9.75
2022-10-08T21:06:39.738Z,10.85
2022-10-08T21:09:07.515Z,11.00
2022-10-08T21:11:35.098Z,9.93
2022-10-08T21:14:03.433Z,9.85
2022-10-08T21:16:32.922Z,10.73
2022-10-08T21:19:02.113Z,11.77
2022-10-08T21:21:31.569Z,12.05
2022-10-08T21:23:59.049Z,12.32
2022-10-08T21:26:30.919Z,11.65
2022-10-08T21:28:59.664Z,10.68
2022-10-08T21:31:27.932Z,9.07
2022-10-08T21:33:55.559Z,10.07
2022-10-08T21:36:25.712Z,10.45
2022-10-08T21:38:52.365Z,9.45
2022-10-08T21:41:21.646Z,9.50
2022-10-08T21:43:56.792Z,10.65
2022-10-08T21:46:26.074Z,11.60
2022-10-08T21:49:05.464Z,11.60
2022-10-08T21:51:33.636Z,11.63
2022-10-08T21:54:02.058Z,12.25
2022-10-08T21:56:31.345Z,11.50
2022-10-08T21:58:59.769Z,11.57
2022-10-08T22:01:37.082Z,11.90
2022-10-08T22:04:06.214Z,12.00
2022-10-08T22:06:37.313Z,10.85
2022-10-08T22:09:10.586Z,11.60
2022-10-08T22:11:37.455Z,12.15
2022-10-08T22:14:04.517Z,13.70
2022-10-08T22:16:31.031Z,13.27
2022-10-08T22:18:58.183Z,12.63
2022-10-08T22:21:24.935Z,13.45
2022-10-08T22:23:52.593Z,12.77
2022-10-08T22:26:22.702Z,14.47
2022-10-08T22:28:50.514Z,13.70
2022-10-08T22:31:18.774Z,13.95
2022-10-08T22:33:45.637Z,13.13
2022-10-08T22:36:15.424Z,12.77
2022-10-08T22:38:44.292Z,11.85
2022-10-08T22:41:16.696Z,12.73
2022-10-08T22:43:43.810Z,13.50
2022-10-08T22:46:13.462Z,11.90
2022-10-08T22:48:40.439Z,11.90
2022-10-08T22:51:10.787Z,11.73
2022-10-08T22:53:37.782Z,13.38
2022-10-08T22:56:06.496Z,11.48
2022-10-08T22:58:34.130Z,11.57
2022-10-08T23:01:12.284Z,13.00
2022-10-08T23:03:39.161Z,12.60
2022-10-08T23:06:21.976Z,12.55
2022-10-08T23:08:54.723Z,13.00
2022-10-08T23:11:21.444Z,13.43
2022-10-08T23:13:56.163Z,9.90
2022-10-08T23:16:24.105Z,9.65
2022-10-08T23:19:01.726Z,10.48
2022-10-08T23:21:28.627Z,10.30
2022-10-08T23:23:55.975Z,9.82
2022-10-08T23:26:23.833Z,9.32
2022-10-08T23:28:52.235Z,9.35
2022-10-08T23:31:20.994Z,8.95
2022-10-08T23:33:48.920Z,8.85
2022-10-08T23:36:18.788Z,8.55
2022-10-08T23:38:45.590Z,8.68
2022-10-08T23:41:12.638Z,8.93
2022-10-08T23:43:42.048Z,7.95
2022-10-08T23:46:10.586Z,7.50
2022-10-08T23:51:05.789Z,6.40
2022-10-08T23:53:33.316Z,6.00
2022-10-08T23:55:59.704Z,6.80
2022-10-08T23:58:26.399Z,7.28
